Kenner, Louisiana
Current Conditions -  °F | °C
As of 6:53 AM on Friday 24 Oct 2014 (Local Time) from KMSY Reporting Station
Few Clouds Few Clouds  
Wind Chill: 60°   Ceiling: Unl
Heat Index: 60°   Visibility: 10mi
Dew Point: 51°   Wind: 7mph
Humidity: 72%   Direction: 50°NE
Pressure: 30.09"   Gusts: NA
Location:  29.99°N, 90.24°W
Report Text: KMSY 241153Z 05006KT 10SM FEW200 16/11 A3009 RMK AO2 SLP193 T01560106 10178 20150 53003
Loading
Personal Weather Stations






























Interactive Weather Map
Tropical Storm Tracking
New forecast layout! Learn more

10-Day Weather Forecast

Advertisements
Track Severe Weather on mobile